Jefferson, Pennsylvania
Current Conditions -  °F | °C
As of 9:35 PM on Saturday 25 Oct 2014 (Local Time) from KAFJ Reporting Station
Clear Clear  
Wind Chill: 61°   Ceiling: Unl
Heat Index: 61°   Visibility: 10mi
Dew Point: 52°   Wind: 9mph
Humidity: 72%   Direction: 240°WSW
Pressure: 29.79"   Gusts: 17mph
Location:  39.93°N, 80.06°W
Report Text: KAFJ 260135Z AUTO 24008G15KT 10SM CLR 16/11 A2979 RMK AO1
Loading
Personal Weather Stations






























Interactive Weather Map
Tropical Storm Tracking
New forecast layout! Learn more

10-Day Weather Forecast

Advertisements
Track Severe Weather on mobile